Time;durP1;ratioP1;P1;durP2;ratioP2;P2;SDS_P1;SDS_P2;PMS_P1;PMS_P2;Temp;Humidity;BMP_temperature;BMP_pressure;BME280_temperature;BME280_humidity;BME280_pressure;Samples;Min_cycle;Max_cycle;Signal;HPM_P1;HPM_P2
2022/02/11 00:07:09;;;;;;;;;;;;;;;5.49;73.05;96846.66;4984091;28;19962;-76
2022/02/11 00:09:35;;;;;;;;;;;;;;;5.50;73.29;96844.84;4980478;28;20071;-76
2022/02/11 00:12:01;;;;;;;;;;;;;;;5.49;73.24;96838.03;4981724;28;19970;-76
2022/02/11 00:14:29;;;;;;;;;;;;;;;5.48;73.17;96842.44;4983581;28;19970;-76
2022/02/11 00:16:55;;;;;;;;;;;;;;;5.48;73.47;96826.84;4989490;28;19963;-76
2022/02/11 00:19:21;;;;;;;;;;;;;;;5.48;73.12;96837.25;4983834;28;19971;-76
2022/02/11 00:21:47;;;;;;;;;;;;;;;5.47;73.41;96835.63;4980784;28;20387;-76
2022/02/11 00:24:14;;;;;;;;;;;;;;;5.47;73.61;96833.00;4983281;28;19956;-76
2022/02/11 00:26:44;;;;;;;;;;;;;;;5.49;73.57;96832.84;4983295;28;19958;-76
2022/02/11 00:34:05;;;;;;;;;;;;;;;5.46;74.28;96817.59;4979518;28;19961;-76
2022/02/11 00:36:42;;;;;;;;;;;;;;;5.45;74.87;96805.56;4987411;28;19968;-76
2022/02/11 01:05:52;;;;;;;;;;;;;;;5.32;77.31;96845.19;4967475;28;20024;-76
2022/02/11 01:08:18;;;;;;;;;;;;;;;5.26;75.43;96838.88;4986399;28;19959;-76
2022/02/11 01:10:45;;;;;;;;;;;;;;;5.22;77.26;96860.19;4990665;28;19953;-75
2022/02/11 01:13:12;;;;;;;;;;;;;;;5.18;76.80;96854.53;4986945;28;19959;-75
2022/02/11 01:15:41;;;;;;;;;;;;;;;5.16;77.29;96866.91;4983870;28;19959;-75
2022/02/11 01:18:10;;;;;;;;;;;;;;;5.13;76.95;96859.44;4984138;28;19954;-75
2022/02/11 01:27:12;;;;;;;;;;;;;;;5.04;76.77;96863.06;4986466;28;19963;-75
2022/02/11 01:31:37;;;;;;;;;;;;;;;5.03;77.24;96874.47;4986325;28;20032;-77
2022/02/11 01:34:41;;;;;;;;;;;;;;;5.00;77.74;96880.03;4984605;28;19958;-75
2022/02/11 01:45:03;;;;;;;;;;;;;;;4.99;77.19;96868.00;4984446;28;19961;-75
2022/02/11 01:48:00;;;;;;;;;;;;;;;4.98;76.69;96862.00;4984607;28;19956;-75
2022/02/11 01:56:02;;;;;;;;;;;;;;;5.03;75.49;96851.88;4985795;28;20432;-76
2022/02/11 02:25:01;;;;;;;;;;;;;;;4.98;74.47;96851.59;4984525;28;19961;-75
2022/02/11 02:57:05;;;;;;;;;;;;;;;4.83;73.62;96868.88;4980519;28;19957;-75
2022/02/11 03:34:48;;;;;;;;;;;;;;;4.52;76.18;96905.25;4988070;28;20354;-74
2022/02/11 04:21:41;;;;;;;;;;;;;;;3.02;80.59;97050.63;4993502;28;19963;-74
2022/02/11 04:56:47;;;;;;;;;;;;;;;1.75;83.53;97122.63;4989469;28;19956;-75
2022/02/11 05:01:57;;;;;;;;;;;;;;;1.78;83.32;97130.09;4989186;28;20184;-74
2022/02/11 05:04:23;;;;;;;;;;;;;;;1.73;82.00;97130.53;4987185;28;19979;-73
2022/02/11 05:06:49;;;;;;;;;;;;;;;1.67;83.56;97132.88;4983845;28;19988;-74
2022/02/11 05:09:15;;;;;;;;;;;;;;;1.51;82.39;97126.59;4986025;28;19988;-74
2022/02/11 05:11:41;;;;;;;;;;;;;;;1.39;84.56;97138.88;4983531;28;19961;-74
2022/02/11 05:14:07;;;;;;;;;;;;;;;1.29;82.47;97125.16;4989077;28;19957;-74
2022/02/11 05:16:35;;;;;;;;;;;;;;;1.27;85.58;97140.00;4990822;28;19951;-74
2022/02/11 05:19:01;;;;;;;;;;;;;;;1.35;86.35;97149.63;4986586;28;20393;-74
2022/02/11 05:21:27;;;;;;;;;;;;;;;1.37;86.70;97156.28;4980054;28;19960;-74
2022/02/11 05:23:53;;;;;;;;;;;;;;;1.38;87.39;97154.50;4990321;28;19973;-75
2022/02/11 05:26:19;;;;;;;;;;;;;;;1.36;84.93;97159.81;4984939;28;19980;-74
2022/02/11 05:28:45;;;;;;;;;;;;;;;1.36;85.19;97161.59;4984572;28;19958;-74
2022/02/11 05:31:11;;;;;;;;;;;;;;;1.34;83.31;97160.91;4985687;28;19969;-74
2022/02/11 05:33:36;;;;;;;;;;;;;;;1.37;86.75;97178.75;4989957;28;20427;-74
2022/02/11 05:36:03;;;;;;;;;;;;;;;1.40;86.33;97183.59;4989017;28;19962;-74
2022/02/11 05:38:29;;;;;;;;;;;;;;;1.46;85.72;97192.56;4986295;28;19954;-74
2022/02/11 05:40:55;;;;;;;;;;;;;;;1.57;86.16;97205.31;4989608;28;20010;-75
2022/02/11 05:43:21;;;;;;;;;;;;;;;1.65;84.53;97204.59;4987354;28;20327;-75
2022/02/11 05:45:46;;;;;;;;;;;;;;;1.73;84.97;97213.28;4986653;28;19972;-74
2022/02/11 05:48:12;;;;;;;;;;;;;;;1.85;84.87;97215.66;4984847;28;19961;-74
2022/02/11 05:50:38;;;;;;;;;;;;;;;1.92;84.05;97222.72;4984449;28;19956;-74
2022/02/11 05:53:05;;;;;;;;;;;;;;;1.94;83.89;97219.97;4987135;28;20008;-74
2022/02/11 05:55:32;;;;;;;;;;;;;;;1.96;83.59;97218.06;4987383;28;19986;-75
2022/02/11 05:57:58;;;;;;;;;;;;;;;2.00;83.61;97224.59;4982869;28;20352;-74
2022/02/11 06:00:24;;;;;;;;;;;;;;;2.06;84.22;97231.78;4984103;28;19963;-74
2022/02/11 06:02:50;;;;;;;;;;;;;;;2.14;84.43;97244.81;4988313;28;20365;-74
2022/02/11 06:05:16;;;;;;;;;;;;;;;2.18;83.73;97235.78;4987956;28;20417;-75
2022/02/11 06:07:42;;;;;;;;;;;;;;;2.24;83.65;97247.31;4986230;28;19952;-74
2022/02/11 06:10:08;;;;;;;;;;;;;;;2.30;83.46;97243.34;4981386;28;19955;-74
2022/02/11 06:12:34;;;;;;;;;;;;;;;2.35;83.31;97254.06;4986343;28;20486;-74
2022/02/11 06:15:00;;;;;;;;;;;;;;;2.30;81.40;97244.16;4992123;28;19959;-74
2022/02/11 06:17:26;;;;;;;;;;;;;;;2.14;80.86;97254.31;4985697;28;19961;-75
2022/02/11 06:19:52;;;;;;;;;;;;;;;1.92;80.61;97261.50;4987030;28;19960;-74
2022/02/11 06:22:18;;;;;;;;;;;;;;;1.79;82.91;97269.59;4967726;28;19961;-75
2022/02/11 06:24:44;;;;;;;;;;;;;;;1.77;82.82;97278.47;4983500;28;20357;-75
2022/02/11 06:27:10;;;;;;;;;;;;;;;1.79;83.17;97284.31;4986726;28;19957;-74
2022/02/11 06:29:36;;;;;;;;;;;;;;;1.84;83.38;97289.84;4984739;28;19961;-75
2022/02/11 06:32:03;;;;;;;;;;;;;;;1.88;82.82;97298.16;4985817;28;19963;-74
2022/02/11 06:34:29;;;;;;;;;;;;;;;1.86;81.83;97298.28;4980260;28;19965;-74
2022/02/11 06:36:55;;;;;;;;;;;;;;;1.82;82.04;97308.09;4988115;28;19956;-74
2022/02/11 06:39:24;;;;;;;;;;;;;;;1.82;82.36;97321.03;4982717;28;20034;-74
2022/02/11 06:41:53;;;;;;;;;;;;;;;1.84;82.44;97323.47;4983444;28;19962;-74
2022/02/11 06:44:20;;;;;;;;;;;;;;;1.88;82.39;97331.78;4986311;28;19965;-74
2022/02/11 06:46:46;;;;;;;;;;;;;;;1.89;82.04;97335.97;4989277;28;20416;-74
2022/02/11 06:49:12;;;;;;;;;;;;;;;1.90;82.00;97345.38;4981023;28;19958;-74
2022/02/11 06:51:38;;;;;;;;;;;;;;;1.91;81.55;97347.00;4984311;28;19961;-74
2022/02/11 06:54:04;;;;;;;;;;;;;;;1.92;81.54;97349.47;4985160;28;20291;-75
2022/02/11 06:56:29;;;;;;;;;;;;;;;1.94;81.55;97351.91;4984898;28;20007;-74
2022/02/11 06:58:55;;;;;;;;;;;;;;;1.97;81.42;97352.41;4987081;28;20042;-74
2022/02/11 07:01:22;;;;;;;;;;;;;;;1.96;81.42;97358.56;4982458;28;19950;-74
2022/02/11 07:03:48;;;;;;;;;;;;;;;1.98;81.20;97368.78;4981093;28;20022;-74
2022/02/11 07:06:14;;;;;;;;;;;;;;;1.97;80.89;97367.13;4984073;28;19968;-75
2022/02/11 07:08:40;;;;;;;;;;;;;;;1.96;80.92;97373.28;4988126;28;19958;-74
2022/02/11 07:11:06;;;;;;;;;;;;;;;1.97;80.96;97382.66;4981572;28;19959;-75
2022/02/11 07:13:32;;;;;;;;;;;;;;;1.96;80.64;97389.59;4983035;28;19955;-75
2022/02/11 07:15:57;;;;;;;;;;;;;;;1.94;80.65;97401.06;4984343;28;19974;-74
2022/02/11 07:18:23;;;;;;;;;;;;;;;1.91;80.35;97401.31;4989111;28;19963;-74
2022/02/11 07:20:49;;;;;;;;;;;;;;;1.87;80.22;97408.56;4986790;28;20036;-75
2022/02/11 07:23:16;;;;;;;;;;;;;;;1.85;80.14;97417.41;4980732;28;19968;-74
2022/02/11 07:25:42;;;;;;;;;;;;;;;1.86;80.58;97421.63;4980222;28;19973;-74
2022/02/11 07:28:08;;;;;;;;;;;;;;;1.84;80.08;97429.53;4991437;28;19957;-75
2022/02/11 07:30:34;;;;;;;;;;;;;;;1.75;79.95;97432.94;4982338;28;19958;-75
2022/02/11 07:33:00;;;;;;;;;;;;;;;1.72;80.42;97446.97;4981962;28;20319;-75
2022/02/11 07:35:27;;;;;;;;;;;;;;;1.77;80.32;97449.94;4986748;28;19951;-75
2022/02/11 07:37:53;;;;;;;;;;;;;;;1.89;78.89;97452.38;4985552;28;19960;-76
2022/02/11 07:40:19;;;;;;;;;;;;;;;2.46;78.83;97457.56;4980860;28;19949;-75
2022/02/11 07:42:47;;;;;;;;;;;;;;;2.89;78.15;97462.16;4977480;28;19955;-75
2022/02/11 07:45:14;;;;;;;;;;;;;;;3.41;77.45;97469.34;4985686;28;19958;-75
2022/02/11 07:47:40;;;;;;;;;;;;;;;4.12;75.55;97478.06;4990106;28;19958;-74
2022/02/11 07:50:06;;;;;;;;;;;;;;;4.76;74.63;97482.00;4967334;28;19960;-74
2022/02/11 07:52:32;;;;;;;;;;;;;;;5.32;71.86;97463.34;4984731;28;20412;-75
2022/02/11 07:54:58;;;;;;;;;;;;;;;5.75;71.24;97467.47;4983696;28;19992;-74
2022/02/11 07:57:24;;;;;;;;;;;;;;;6.19;69.91;97461.94;4984588;28;20407;-74
2022/02/11 07:59:51;;;;;;;;;;;;;;;6.51;68.08;97444.66;4987609;28;19992;-74
2022/02/11 08:02:17;;;;;;;;;;;;;;;6.72;65.83;97431.06;4984359;28;19964;-75
2022/02/11 08:04:43;;;;;;;;;;;;;;;6.85;65.93;97430.50;4980671;28;19970;-74
2022/02/11 08:07:09;;;;;;;;;;;;;;;7.00;65.36;97435.81;4981998;28;19960;-75
2022/02/11 08:09:35;;;;;;;;;;;;;;;7.05;63.47;97426.47;4986184;28;19968;-74
2022/02/11 08:12:01;;;;;;;;;;;;;;;7.02;63.32;97426.03;4990736;28;19957;-75
2022/02/11 08:14:27;;;;;;;;;;;;;;;6.97;62.76;97436.97;4975173;28;19951;-75
2022/02/11 08:16:53;;;;;;;;;;;;;;;6.81;60.91;97424.00;4985200;28;20405;-74
2022/02/11 08:19:19;;;;;;;;;;;;;;;6.68;61.40;97438.38;4983558;28;20332;-75
2022/02/11 08:21:46;;;;;;;;;;;;;;;6.64;62.71;97454.53;4983008;28;19946;-74
2022/02/11 08:24:13;;;;;;;;;;;;;;;6.72;63.43;97472.78;4980485;28;20332;-75
2022/02/11 08:26:39;;;;;;;;;;;;;;;6.81;61.51;97452.69;4983156;28;20360;-74
2022/02/11 08:29:08;;;;;;;;;;;;;;;6.39;61.63;97454.59;4989546;28;19959;-74
2022/02/11 08:31:34;;;;;;;;;;;;;;;6.21;63.65;97493.84;4982400;28;19959;-74
2022/02/11 08:34:00;;;;;;;;;;;;;;;6.39;62.39;97482.44;4980455;28;19962;-74
2022/02/11 08:36:26;;;;;;;;;;;;;;;6.24;63.03;97485.72;4989618;28;20407;-74
2022/02/11 08:38:52;;;;;;;;;;;;;;;6.28;62.07;97484.41;4984502;28;20041;-74
2022/02/11 08:41:18;;;;;;;;;;;;;;;6.11;63.55;97516.66;4978382;28;20023;-74
2022/02/11 08:43:44;;;;;;;;;;;;;;;5.73;63.35;97518.88;4987938;28;19973;-75
2022/02/11 08:46:10;;;;;;;;;;;;;;;5.32;63.81;97534.41;4987481;28;19961;-74
2022/02/11 08:48:36;;;;;;;;;;;;;;;4.92;64.29;97535.84;4982389;28;19956;-74
2022/02/11 08:51:02;;;;;;;;;;;;;;;4.48;63.18;97534.13;4981912;28;19982;-75
2022/02/11 08:53:30;;;;;;;;;;;;;;;4.10;64.23;97560.47;4984072;28;20419;-74
2022/02/11 08:55:56;;;;;;;;;;;;;;;3.84;66.21;97585.38;4987539;28;19980;-74
2022/02/11 08:58:21;;;;;;;;;;;;;;;3.60;66.80;97590.31;4984052;28;20006;-74
2022/02/11 09:00:47;;;;;;;;;;;;;;;3.47;67.60;97606.22;4985212;28;19963;-75
2022/02/11 09:03:14;;;;;;;;;;;;;;;3.35;66.46;97602.19;4990233;28;20041;-74
2022/02/11 09:05:40;;;;;;;;;;;;;;;3.30;69.07;97640.66;4986598;28;19978;-74
2022/02/11 09:08:06;;;;;;;;;;;;;;;3.22;69.47;97634.44;4989757;28;19952;-74
2022/02/11 09:10:32;;;;;;;;;;;;;;;3.18;69.58;97638.25;4986323;28;19959;-74
2022/02/11 09:12:59;;;;;;;;;;;;;;;3.25;69.45;97628.13;4984438;28;19962;-75
2022/02/11 09:15:26;;;;;;;;;;;;;;;3.65;70.00;97638.22;4988291;28;19951;-74
2022/02/11 09:17:53;;;;;;;;;;;;;;;4.17;66.38;97595.25;4986648;28;20425;-76
2022/02/11 09:20:19;;;;;;;;;;;;;;;4.62;64.86;97568.31;4975550;28;19967;-74
2022/02/11 09:22:45;;;;;;;;;;;;;;;5.04;66.56;97593.56;4981915;28;19969;-74
2022/02/11 09:25:12;;;;;;;;;;;;;;;5.37;63.94;97568.53;4987440;28;19990;-74
2022/02/11 09:27:43;;;;;;;;;;;;;;;5.56;61.65;97541.44;4991041;28;19965;-74
2022/02/11 09:30:09;;;;;;;;;;;;;;;5.72;63.44;97564.09;4987417;28;19955;-74
2022/02/11 09:32:35;;;;;;;;;;;;;;;5.69;61.51;97561.81;4981707;28;19961;-74
2022/02/11 09:35:01;;;;;;;;;;;;;;;5.89;63.43;97570.97;4987987;28;20032;-74
2022/02/11 09:37:28;;;;;;;;;;;;;;;6.09;62.51;97574.13;4989588;28;20331;-75
2022/02/11 09:39:54;;;;;;;;;;;;;;;6.24;63.54;97582.09;4986139;28;20023;-75
2022/02/11 09:42:20;;;;;;;;;;;;;;;6.30;59.90;97550.19;4981983;28;20050;-75
2022/02/11 09:44:46;;;;;;;;;;;;;;;6.33;59.83;97540.44;4986948;28;20017;-75
2022/02/11 09:47:12;;;;;;;;;;;;;;;6.33;60.30;97550.84;4989853;28;20412;-75
2022/02/11 09:49:38;;;;;;;;;;;;;;;6.43;60.00;97556.72;4980659;28;19961;-75
2022/02/11 09:52:05;;;;;;;;;;;;;;;6.54;60.17;97574.59;4991659;28;19973;-74
2022/02/11 09:54:32;;;;;;;;;;;;;;;6.75;59.76;97568.06;4987426;28;19986;-75
2022/02/11 09:56:59;;;;;;;;;;;;;;;6.98;60.71;97583.84;4985090;28;20315;-75
2022/02/11 09:59:25;;;;;;;;;;;;;;;7.09;55.37;97533.91;4986052;28;19952;-75
2022/02/11 10:01:51;;;;;;;;;;;;;;;7.17;59.42;97583.44;4990871;28;20396;-75
2022/02/11 10:04:18;;;;;;;;;;;;;;;7.05;60.44;97584.78;4986741;28;20332;-75
2022/02/11 10:06:51;;;;;;;;;;;;;;;6.78;56.09;97546.88;4983632;28;19960;-75
2022/02/11 10:09:18;;;;;;;;;;;;;;;6.71;58.89;97572.78;4988550;28;19961;-75
2022/02/11 10:11:44;;;;;;;;;;;;;;;6.46;59.31;97591.06;4987766;28;19952;-75
2022/02/11 10:14:16;;;;;;;;;;;;;;;6.18;59.48;97608.00;4983688;28;19956;-75
2022/02/11 10:16:51;;;;;;;;;;;;;;;5.94;60.31;97606.91;4965460;28;19955;-75
2022/02/11 10:19:35;;;;;;;;;;;;;;;5.86;60.07;97605.13;4987897;28;19954;-75
2022/02/11 10:22:09;;;;;;;;;;;;;;;5.87;57.98;97574.69;4977510;28;20342;-75
2022/02/11 10:24:35;;;;;;;;;;;;;;;5.76;59.03;97596.66;4980918;28;19968;-75
2022/02/11 10:27:14;;;;;;;;;;;;;;;5.67;61.55;97627.03;4986700;28;19958;-75
2022/02/11 10:29:40;;;;;;;;;;;;;;;5.60;59.91;97602.59;4985508;28;19975;-75
2022/02/11 10:32:06;;;;;;;;;;;;;;;5.47;60.97;97623.06;4987988;28;19961;-75
2022/02/11 10:34:32;;;;;;;;;;;;;;;5.33;61.11;97621.03;4986461;28;20360;-75
2022/02/11 10:37:06;;;;;;;;;;;;;;;5.21;62.08;97644.72;4979810;28;19963;-75
2022/02/11 10:39:31;;;;;;;;;;;;;;;5.09;60.61;97630.34;4984730;28;20330;-75
2022/02/11 10:41:59;;;;;;;;;;;;;;;5.00;61.26;97647.69;4987978;28;20051;-75
2022/02/11 10:44:29;;;;;;;;;;;;;;;4.81;62.36;97656.50;4985272;28;19970;-75
2022/02/11 10:46:58;;;;;;;;;;;;;;;4.66;60.91;97650.19;4986014;28;19955;-75
2022/02/11 10:49:31;;;;;;;;;;;;;;;4.60;61.73;97662.00;4983523;28;19950;-75
2022/02/11 10:52:07;;;;;;;;;;;;;;;4.54;62.03;97664.41;4981877;28;19952;-75
2022/02/11 10:54:34;;;;;;;;;;;;;;;4.58;65.06;97707.31;4984323;28;19976;-75
2022/02/11 10:57:00;;;;;;;;;;;;;;;4.66;63.82;97694.34;4985043;28;19967;-75
2022/02/11 10:59:31;;;;;;;;;;;;;;;4.72;64.13;97685.97;4985590;28;20424;-75
2022/02/11 11:01:58;;;;;;;;;;;;;;;4.70;64.63;97695.69;4989606;28;19955;-75
2022/02/11 11:04:24;;;;;;;;;;;;;;;4.74;64.19;97693.63;4986472;28;19977;-76
2022/02/11 11:06:51;;;;;;;;;;;;;;;4.81;65.76;97702.47;4983580;28;20323;-75
2022/02/11 11:09:17;;;;;;;;;;;;;;;4.95;62.04;97654.31;4980962;28;20337;-75
2022/02/11 11:11:46;;;;;;;;;;;;;;;4.95;64.45;97677.69;4988705;28;19950;-75
2022/02/11 11:14:13;;;;;;;;;;;;;;;5.06;61.59;97648.84;4985294;28;19960;-75
2022/02/11 11:16:40;;;;;;;;;;;;;;;5.21;63.98;97675.13;4981161;28;19963;-76
2022/02/11 11:19:07;;;;;;;;;;;;;;;5.46;62.68;97650.88;4982718;28;19963;-75
2022/02/11 11:22:11;;;;;;;;;;;;;;;5.79;61.97;97644.97;4986358;28;19962;-76
2022/02/11 11:24:53;;;;;;;;;;;;;;;6.16;59.12;97610.75;4990383;28;19969;-75
2022/02/11 11:27:38;;;;;;;;;;;;;;;6.39;60.40;97630.97;4979689;28;19967;-75
2022/02/11 11:30:19;;;;;;;;;;;;;;;6.67;58.26;97597.56;4984690;28;19956;-76
2022/02/11 11:33:07;;;;;;;;;;;;;;;7.01;58.26;97602.56;4984444;28;19965;-76
2022/02/11 11:35:45;;;;;;;;;;;;;;;7.10;54.30;97546.78;4979388;28;19953;-77
2022/02/11 11:38:15;;;;;;;;;;;;;;;6.88;56.46;97592.63;4974258;28;19971;-76
2022/02/11 11:40:54;;;;;;;;;;;;;;;6.56;54.30;97564.03;4972768;28;19952;-76
2022/02/11 11:43:33;;;;;;;;;;;;;;;6.25;55.84;97588.13;4982874;28;20461;-76
2022/02/11 11:46:21;;;;;;;;;;;;;;;6.09;56.11;97600.16;4983258;28;19974;-76
2022/02/11 11:49:08;;;;;;;;;;;;;;;5.83;56.29;97599.41;4981650;28;19961;-76
2022/02/11 11:51:34;;;;;;;;;;;;;;;5.65;56.44;97608.16;4976178;28;19952;-76
2022/02/11 11:54:15;;;;;;;;;;;;;;;5.41;57.08;97619.28;4983513;28;19970;-75
2022/02/11 11:56:42;;;;;;;;;;;;;;;5.38;58.53;97632.63;4983362;28;19972;-76
2022/02/11 11:59:13;;;;;;;;;;;;;;;5.60;59.23;97636.44;4987770;28;19969;-76
2022/02/11 12:01:55;;;;;;;;;;;;;;;5.84;58.89;97627.09;4987915;28;20417;-76
2022/02/11 12:04:31;;;;;;;;;;;;;;;6.10;59.47;97647.84;4964616;28;19972;-76
2022/02/11 12:06:59;;;;;;;;;;;;;;;6.36;56.79;97621.66;4983599;28;19964;-76
2022/02/11 12:09:25;;;;;;;;;;;;;;;6.53;56.63;97612.09;4985866;28;19963;-76
2022/02/11 12:11:52;;;;;;;;;;;;;;;6.67;55.68;97602.78;4984273;28;19960;-75
2022/02/11 12:14:18;;;;;;;;;;;;;;;6.76;57.21;97624.44;4983741;28;20417;-75
2022/02/11 12:16:44;;;;;;;;;;;;;;;6.52;54.44;97589.59;4983189;28;19950;-76
2022/02/11 12:19:09;;;;;;;;;;;;;;;6.37;56.58;97628.53;4983979;28;20010;-76
2022/02/11 12:21:37;;;;;;;;;;;;;;;6.34;54.26;97581.13;4984773;28;19960;-76
2022/02/11 12:29:33;;;;;;;;;;;;;;;6.02;55.71;97595.75;4985690;28;19953;-78
2022/02/11 12:32:00;;;;;;;;;;;;;;;6.04;56.82;97625.06;4985041;28;20324;-76
2022/02/11 12:34:26;;;;;;;;;;;;;;;6.06;58.06;97633.50;4986376;28;19949;-76
2022/02/11 12:36:52;;;;;;;;;;;;;;;6.02;54.78;97604.38;4989434;28;20283;-76
2022/02/11 12:39:19;;;;;;;;;;;;;;;6.00;54.50;97602.91;4990896;28;20044;-76
2022/02/11 12:41:50;;;;;;;;;;;;;;;5.78;55.48;97620.72;4984207;28;19959;-76
2022/02/11 12:44:26;;;;;;;;;;;;;;;5.65;56.37;97626.38;4988083;28;20012;-77
2022/02/11 12:46:52;;;;;;;;;;;;;;;5.57;57.35;97635.97;4991929;28;19962;-76
2022/02/11 12:49:18;;;;;;;;;;;;;;;5.57;56.42;97620.34;4987954;28;19950;-76
2022/02/11 12:51:51;;;;;;;;;;;;;;;5.37;53.12;97581.53;4987886;28;19956;-76
2022/02/11 12:54:19;;;;;;;;;;;;;;;5.35;56.06;97612.09;4981143;28;19966;-77
2022/02/11 12:56:49;;;;;;;;;;;;;;;5.41;55.50;97614.09;4984947;28;19963;-76
2022/02/11 12:59:15;;;;;;;;;;;;;;;5.41;55.48;97611.47;4992716;28;19956;-76
2022/02/11 13:01:41;;;;;;;;;;;;;;;5.32;55.62;97617.63;4987541;28;19962;-76
2022/02/11 13:04:16;;;;;;;;;;;;;;;5.28;53.50;97592.91;4981614;28;20423;-76
2022/02/11 13:06:42;;;;;;;;;;;;;;;5.31;53.54;97589.97;4991446;28;19959;-76
2022/02/11 13:09:08;;;;;;;;;;;;;;;5.29;56.01;97618.75;4988437;28;19982;-77
2022/02/11 13:11:34;;;;;;;;;;;;;;;5.37;57.32;97638.78;4987657;28;20427;-76
2022/02/11 13:14:00;;;;;;;;;;;;;;;5.40;57.09;97637.69;4985878;28;20434;-76
2022/02/11 13:16:26;;;;;;;;;;;;;;;5.37;56.40;97622.34;4984966;28;20045;-76
2022/02/11 13:18:52;;;;;;;;;;;;;;;5.29;54.97;97605.75;4992906;28;19985;-76
2022/02/11 13:21:20;;;;;;;;;;;;;;;5.28;57.30;97637.13;4988202;28;20051;-76
2022/02/11 13:23:50;;;;;;;;;;;;;;;5.35;57.13;97630.31;4980277;28;19967;-77
2022/02/11 13:26:16;;;;;;;;;;;;;;;5.42;56.93;97625.31;4977557;28;19978;-76
2022/02/11 13:28:45;;;;;;;;;;;;;;;5.40;56.27;97615.06;4981727;28;19961;-76
2022/02/11 13:31:12;;;;;;;;;;;;;;;5.36;57.03;97624.16;4972089;28;19951;-77
2022/02/11 13:33:38;;;;;;;;;;;;;;;5.40;56.83;97620.28;4987098;28;19965;-77
2022/02/11 13:36:11;;;;;;;;;;;;;;;5.40;56.02;97612.47;4986057;28;20005;-77
2022/02/11 13:38:45;;;;;;;;;;;;;;;5.46;56.14;97618.84;4983525;28;20517;-76
2022/02/11 13:41:12;;;;;;;;;;;;;;;5.46;56.00;97621.44;4985044;28;19953;-76
2022/02/11 13:43:54;;;;;;;;;;;;;;;5.38;53.48;97591.00;4991966;28;20306;-76
2022/02/11 13:46:25;;;;;;;;;;;;;;;5.32;54.03;97602.03;4990283;28;19971;-77
2022/02/11 13:48:54;;;;;;;;;;;;;;;5.29;55.02;97621.38;4987266;28;19961;-76
2022/02/11 13:51:20;;;;;;;;;;;;;;;5.18;54.62;97607.81;4990339;28;19957;-76
2022/02/11 13:53:48;;;;;;;;;;;;;;;5.15;54.68;97631.53;4982003;28;20477;-77
2022/02/11 13:56:17;;;;;;;;;;;;;;;5.11;53.80;97612.81;4986733;28;19974;-77
2022/02/11 13:59:02;;;;;;;;;;;;;;;5.06;54.10;97613.28;4989354;28;19980;-76
2022/02/11 14:01:29;;;;;;;;;;;;;;;4.99;54.39;97629.63;4987285;28;19956;-77
2022/02/11 14:03:59;;;;;;;;;;;;;;;5.00;55.94;97644.28;4979121;28;20416;-77
2022/02/11 14:06:25;;;;;;;;;;;;;;;5.05;54.39;97636.81;4986773;28;19978;-76
2022/02/11 14:08:51;;;;;;;;;;;;;;;5.04;55.56;97648.19;4985441;28;19960;-77
2022/02/11 14:11:19;;;;;;;;;;;;;;;5.01;55.43;97646.69;4990014;28;19961;-77
2022/02/11 14:13:46;;;;;;;;;;;;;;;4.96;53.92;97628.16;4988357;28;20053;-77
2022/02/11 14:16:12;;;;;;;;;;;;;;;4.94;54.67;97645.69;4997312;28;20414;-77
2022/02/11 14:18:39;;;;;;;;;;;;;;;4.94;54.96;97647.50;4988354;28;19959;-76
2022/02/11 14:21:05;;;;;;;;;;;;;;;4.95;55.37;97649.09;4985259;28;19951;-76
2022/02/11 14:23:31;;;;;;;;;;;;;;;4.89;53.75;97634.91;4987975;28;20426;-77
2022/02/11 14:25:57;;;;;;;;;;;;;;;4.84;55.22;97648.38;4991207;28;19989;-76
2022/02/11 14:28:26;;;;;;;;;;;;;;;4.82;55.31;97657.31;4985579;28;20343;-77
2022/02/11 14:30:53;;;;;;;;;;;;;;;4.72;54.56;97643.59;4989899;28;19953;-77
2022/02/11 14:33:20;;;;;;;;;;;;;;;4.64;55.44;97654.72;4983848;28;19972;-76
2022/02/11 14:35:46;;;;;;;;;;;;;;;4.64;55.83;97665.94;4983253;28;19963;-76
2022/02/11 14:38:12;;;;;;;;;;;;;;;4.63;56.24;97671.28;4985171;28;19951;-77
2022/02/11 14:41:45;;;;;;;;;;;;;;;4.64;55.61;97678.09;4971088;28;20051;-76
2022/02/11 14:43:25;;;;;;;;;;;;;;;4.64;56.14;97678.09;4989524;28;19957;-77
2022/02/11 14:45:51;;;;;;;;;;;;;;;4.65;55.93;97679.75;4984667;28;19973;-77
2022/02/11 14:48:17;;;;;;;;;;;;;;;4.63;55.79;97671.28;4984310;28;19958;-76
2022/02/11 14:50:43;;;;;;;;;;;;;;;4.61;55.80;97663.63;4984972;28;20012;-76
2022/02/11 14:53:09;;;;;;;;;;;;;;;4.67;55.11;97672.63;4982518;28;19957;-77
2022/02/11 14:55:35;;;;;;;;;;;;;;;4.77;56.49;97694.16;4983909;28;20465;-76
2022/02/11 14:58:02;;;;;;;;;;;;;;;4.85;56.19;97678.63;4983272;28;19967;-76
2022/02/11 15:00:29;;;;;;;;;;;;;;;4.92;54.48;97645.03;4981585;28;20412;-77
2022/02/11 15:02:59;;;;;;;;;;;;;;;4.91;55.22;97658.16;4985725;28;19971;-76
2022/02/11 15:05:25;;;;;;;;;;;;;;;4.85;53.89;97625.78;4987307;28;19969;-76
2022/02/11 15:07:51;;;;;;;;;;;;;;;4.83;55.00;97645.91;4986902;28;19962;-77
2022/02/11 15:10:17;;;;;;;;;;;;;;;4.82;55.05;97652.09;4985291;28;19961;-77
2022/02/11 15:12:42;;;;;;;;;;;;;;;4.76;54.69;97650.09;4980972;28;19954;-77
2022/02/11 15:15:09;;;;;;;;;;;;;;;4.71;54.41;97641.97;4949977;28;20006;-77
2022/02/11 15:17:35;;;;;;;;;;;;;;;4.68;54.09;97637.84;4983848;28;19957;-77
2022/02/11 15:20:00;;;;;;;;;;;;;;;4.64;55.78;97652.97;4988658;28;20038;-77
2022/02/11 15:22:26;;;;;;;;;;;;;;;4.61;54.44;97634.25;4978688;28;20304;-77
2022/02/11 15:24:52;;;;;;;;;;;;;;;4.55;55.12;97660.81;4982616;28;19967;-77
2022/02/11 15:27:18;;;;;;;;;;;;;;;4.43;53.98;97647.25;4969394;28;20414;-77
2022/02/11 15:29:44;;;;;;;;;;;;;;;4.33;54.45;97642.13;4983374;28;19953;-77
2022/02/11 15:32:11;;;;;;;;;;;;;;;4.32;56.13;97676.84;4982484;28;20401;-77
2022/02/11 15:34:37;;;;;;;;;;;;;;;4.27;54.17;97653.13;4988494;28;19961;-76
2022/02/11 15:37:04;;;;;;;;;;;;;;;4.22;54.88;97661.34;4984817;28;19958;-77
2022/02/11 15:39:30;;;;;;;;;;;;;;;4.21;54.91;97664.91;4986336;28;19981;-77
2022/02/11 15:41:56;;;;;;;;;;;;;;;4.19;54.76;97666.81;4982434;28;20001;-77
2022/02/11 15:44:21;;;;;;;;;;;;;;;4.18;55.27;97666.97;4978832;28;19959;-77
2022/02/11 15:46:47;;;;;;;;;;;;;;;4.14;53.99;97663.06;4982885;28;19976;-76
2022/02/11 15:49:13;;;;;;;;;;;;;;;4.11;55.46;97681.50;4984378;28;20008;-77
2022/02/11 15:51:39;;;;;;;;;;;;;;;4.11;55.06;97671.94;4984312;28;19957;-77
2022/02/11 15:54:05;;;;;;;;;;;;;;;4.16;55.34;97685.31;4981970;28;20009;-77
2022/02/11 15:56:31;;;;;;;;;;;;;;;4.20;54.82;97680.63;4982044;28;20319;-77
2022/02/11 15:58:57;;;;;;;;;;;;;;;4.19;54.83;97685.00;4986705;28;19965;-77
2022/02/11 16:01:23;;;;;;;;;;;;;;;4.21;56.18;97711.63;4985020;28;20353;-76
2022/02/11 16:03:49;;;;;;;;;;;;;;;4.23;55.92;97704.53;4981011;28;20038;-77
2022/02/11 16:06:15;;;;;;;;;;;;;;;4.28;55.94;97704.06;4979518;28;19970;-78
2022/02/11 16:08:41;;;;;;;;;;;;;;;4.29;54.86;97690.13;4985745;28;19951;-77
2022/02/11 16:11:07;;;;;;;;;;;;;;;4.30;55.46;97701.34;4988201;28;20013;-77
2022/02/11 16:13:33;;;;;;;;;;;;;;;4.30;56.19;97717.72;4984920;28;20052;-77
2022/02/11 16:15:59;;;;;;;;;;;;;;;4.30;57.07;97724.72;4979689;28;19976;-78
2022/02/11 16:18:25;;;;;;;;;;;;;;;4.33;56.76;97717.44;4984624;28;19964;-77
2022/02/11 16:20:52;;;;;;;;;;;;;;;4.27;55.99;97708.47;4985570;28;19968;-76
2022/02/11 16:23:19;;;;;;;;;;;;;;;4.21;56.83;97713.44;4978347;28;19963;-77
2022/02/11 16:25:45;;;;;;;;;;;;;;;4.14;56.01;97718.38;4985385;28;19973;-77
2022/02/11 16:28:12;;;;;;;;;;;;;;;4.07;57.37;97725.94;4987301;28;19966;-77
2022/02/11 16:30:39;;;;;;;;;;;;;;;4.04;57.47;97739.19;4984954;28;19977;-77
2022/02/11 16:33:05;;;;;;;;;;;;;;;4.05;57.26;97730.47;4981072;28;19962;-77
2022/02/11 16:35:32;;;;;;;;;;;;;;;4.01;57.48;97739.50;4976444;28;20432;-79
2022/02/11 16:37:58;;;;;;;;;;;;;;;3.99;57.07;97740.59;4989343;28;19956;-77
2022/02/11 16:40:24;;;;;;;;;;;;;;;3.93;57.46;97754.97;4980349;28;20416;-77
2022/02/11 16:42:50;;;;;;;;;;;;;;;3.86;58.32;97766.88;4984900;28;19967;-77
2022/02/11 16:45:16;;;;;;;;;;;;;;;3.82;58.38;97768.97;4988023;28;20439;-77
2022/02/11 16:47:42;;;;;;;;;;;;;;;3.77;58.59;97765.16;4985432;28;20417;-76
2022/02/11 16:50:08;;;;;;;;;;;;;;;3.75;58.90;97780.03;4979841;28;19952;-77
2022/02/11 16:52:35;;;;;;;;;;;;;;;3.71;59.15;97784.69;4978257;28;19961;-77
2022/02/11 16:55:02;;;;;;;;;;;;;;;3.70;59.41;97803.81;4989539;28;20062;-77
2022/02/11 16:57:27;;;;;;;;;;;;;;;3.64;59.45;97806.97;4984193;28;19967;-77